createdAt,value
2023-02-23T00:02:07.845Z,11.77
2023-02-23T00:04:36.239Z,11.85
2023-02-23T00:07:06.324Z,11.79
2023-02-23T00:09:36.267Z,11.75
2023-02-23T00:12:09.210Z,11.81
2023-02-23T00:14:38.395Z,11.74
2023-02-23T00:17:14.365Z,11.74
2023-02-23T00:19:43.805Z,11.75
2023-02-23T00:22:12.049Z,11.79
2023-02-23T00:24:40.632Z,11.75
2023-02-23T00:27:07.699Z,11.68
2023-02-23T00:29:39.533Z,11.66
2023-02-23T00:32:07.466Z,11.69
2023-02-23T00:34:36.794Z,11.71
2023-02-23T00:37:04.535Z,11.66
2023-02-23T00:39:31.719Z,11.65
2023-02-23T00:42:03.110Z,11.64
2023-02-23T00:44:31.918Z,11.65
2023-02-23T00:46:58.878Z,11.65
2023-02-23T00:49:26.970Z,11.67
2023-02-23T00:51:54.866Z,11.68
2023-02-23T00:54:22.921Z,11.68
2023-02-23T00:56:50.772Z,11.70
2023-02-23T00:59:19.695Z,11.69
2023-02-23T01:01:47.246Z,11.67
2023-02-23T01:04:14.994Z,11.68
2023-02-23T01:06:42.751Z,11.68
2023-02-23T01:09:16.142Z,11.66
2023-02-23T01:11:46.965Z,11.64
2023-02-23T01:14:15.082Z,11.63
2023-02-23T01:16:42.153Z,11.60
2023-02-23T01:19:10.472Z,11.58
2023-02-23T01:21:42.162Z,11.61
2023-02-23T01:24:10.677Z,11.58
2023-02-23T01:26:44.125Z,11.56
2023-02-23T01:29:16.054Z,11.54
2023-02-23T01:31:46.612Z,11.58
2023-02-23T01:34:21.736Z,11.45
2023-02-23T01:36:49.117Z,11.39
2023-02-23T01:39:20.059Z,11.41
2023-02-23T01:41:47.535Z,11.44
2023-02-23T01:44:15.242Z,11.42
2023-02-23T01:46:46.058Z,11.42
2023-02-23T01:49:20.746Z,11.44
2023-02-23T01:52:00.506Z,11.46
2023-02-23T01:54:36.501Z,11.48
2023-02-23T01:57:06.976Z,11.46
2023-02-23T01:59:47.586Z,11.48
2023-02-23T02:02:18.442Z,11.46
2023-02-23T02:04:46.080Z,11.45
2023-02-23T02:07:25.119Z,11.48
2023-02-23T02:10:11.744Z,11.50
2023-02-23T02:12:52.162Z,11.47
2023-02-23T02:15:22.967Z,11.46
2023-02-23T02:18:18.706Z,11.48
2023-02-23T02:21:29.471Z,11.45
2023-02-23T02:24:28.394Z,11.45
2023-02-23T02:27:39.441Z,11.43
2023-02-23T02:30:34.499Z,11.40
2023-02-23T02:33:45.564Z,11.42
2023-02-23T02:37:00.466Z,11.38
2023-02-23T02:39:53.728Z,11.35
2023-02-23T02:42:40.361Z,11.32
2023-02-23T02:45:37.866Z,11.32
2023-02-23T02:48:42.401Z,11.31
2023-02-23T02:51:24.604Z,11.30
2023-02-23T02:54:11.328Z,11.29
2023-02-23T02:56:43.311Z,11.29
2023-02-23T02:59:32.861Z,11.31
2023-02-23T03:02:18.981Z,11.31
2023-02-23T03:05:05.296Z,11.29
2023-02-23T03:08:21.993Z,11.29
2023-02-23T03:11:21.419Z,11.29
2023-02-23T03:14:50.070Z,11.30
2023-02-23T03:18:03.494Z,11.30
2023-02-23T03:20:52.981Z,11.30
2023-02-23T03:24:15.848Z,11.31
2023-02-23T03:27:20.108Z,11.29
2023-02-23T03:30:25.459Z,11.28
2023-02-23T03:33:16.976Z,11.27
2023-02-23T03:36:24.781Z,11.26
2023-02-23T03:39:23.355Z,11.23
2023-02-23T03:42:12.038Z,11.21
2023-02-23T03:45:04.657Z,11.20
2023-02-23T03:47:56.149Z,11.19
2023-02-23T03:50:59.832Z,11.20
2023-02-23T03:54:00.643Z,11.21
2023-02-23T03:56:52.460Z,11.21
2023-02-23T03:59:43.697Z,11.22
2023-02-23T04:02:33.708Z,11.22
2023-02-23T04:05:25.563Z,11.22
2023-02-23T04:08:13.292Z,11.23
2023-02-23T04:11:09.604Z,11.22
2023-02-23T04:13:39.806Z,11.20
2023-02-23T04:16:09.547Z,11.20
2023-02-23T04:18:39.468Z,11.20
2023-02-23T04:21:07.812Z,11.22
2023-02-23T04:23:36.235Z,11.23
2023-02-23T04:26:05.267Z,11.22
2023-02-23T04:28:32.357Z,11.24
2023-02-23T04:30:59.401Z,11.23
2023-02-23T04:33:27.296Z,11.22
2023-02-23T04:35:54.877Z,11.19
2023-02-23T04:38:23.278Z,11.19
2023-02-23T04:40:51.035Z,11.16
2023-02-23T04:43:18.324Z,11.15
2023-02-23T04:45:45.819Z,11.15
2023-02-23T04:48:12.901Z,11.14
2023-02-23T04:50:39.911Z,11.12
2023-02-23T04:53:07.024Z,11.09
2023-02-23T04:55:34.573Z,11.09
2023-02-23T04:58:03.075Z,11.09
2023-02-23T05:00:31.624Z,11.09
2023-02-23T05:02:58.765Z,11.09
2023-02-23T05:05:26.520Z,11.11
2023-02-23T05:07:55.144Z,11.09
2023-02-23T05:10:22.585Z,11.11
2023-02-23T05:12:49.845Z,11.13
2023-02-23T05:15:17.461Z,11.13
2023-02-23T05:17:44.554Z,11.13
2023-02-23T05:20:13.570Z,11.12
2023-02-23T05:22:41.561Z,11.11
2023-02-23T05:25:10.387Z,11.10
2023-02-23T05:27:38.213Z,11.10
2023-02-23T05:30:07.971Z,11.12
2023-02-23T05:32:35.634Z,11.11
2023-02-23T05:35:03.425Z,11.10
2023-02-23T05:37:30.837Z,11.12
2023-02-23T05:39:58.449Z,11.12
2023-02-23T05:42:25.816Z,11.12
2023-02-23T05:44:52.922Z,11.11
2023-02-23T05:47:19.951Z,11.12
2023-02-23T05:49:47.224Z,11.10
2023-02-23T05:52:14.320Z,11.10
2023-02-23T05:54:41.726Z,11.08
2023-02-23T05:57:09.077Z,11.07
2023-02-23T05:59:36.617Z,11.07
2023-02-23T06:02:06.200Z,11.06
2023-02-23T06:04:34.032Z,11.03
2023-02-23T06:07:01.167Z,11.00
2023-02-23T06:09:28.231Z,10.98
2023-02-23T06:11:55.268Z,10.96
2023-02-23T06:14:22.269Z,10.96
2023-02-23T06:16:49.343Z,10.95
2023-02-23T06:19:16.393Z,10.95
2023-02-23T06:21:43.492Z,10.94
2023-02-23T06:24:11.006Z,10.95
2023-02-23T06:26:38.170Z,10.94
2023-02-23T06:29:05.992Z,10.94
2023-02-23T06:31:32.986Z,10.95
2023-02-23T06:33:59.980Z,10.94
2023-02-23T06:36:27.914Z,10.94
2023-02-23T06:38:59.152Z,10.95
2023-02-23T06:41:27.246Z,10.95
2023-02-23T06:43:54.352Z,10.94
2023-02-23T06:46:21.703Z,10.94
2023-02-23T06:48:48.840Z,10.94
2023-02-23T06:51:15.999Z,10.96
2023-02-23T06:53:43.287Z,10.94
2023-02-23T06:56:12.446Z,10.92
2023-02-23T06:58:43.353Z,10.93
2023-02-23T07:01:12.369Z,10.95
2023-02-23T07:03:40.065Z,10.93
2023-02-23T07:06:07.558Z,10.92
2023-02-23T07:08:35.548Z,10.93
2023-02-23T07:11:14.203Z,10.95
2023-02-23T07:13:45.403Z,10.95
2023-02-23T07:16:14.683Z,10.95
2023-02-23T07:18:42.159Z,10.97
2023-02-23T07:21:09.306Z,10.97
2023-02-23T07:23:36.521Z,10.96
2023-02-23T07:26:03.699Z,10.95
2023-02-23T07:28:30.836Z,10.94
2023-02-23T07:31:01.489Z,10.92
2023-02-23T07:33:29.624Z,10.92
2023-02-23T07:36:06.368Z,10.94
2023-02-23T07:38:34.033Z,10.93
2023-02-23T07:41:01.275Z,10.92
2023-02-23T07:43:28.841Z,10.94
2023-02-23T07:46:01.127Z,10.96
2023-02-23T07:48:29.462Z,10.98
2023-02-23T07:50:56.935Z,10.99
2023-02-23T07:53:27.805Z,11.03
2023-02-23T07:55:58.474Z,11.04
2023-02-23T07:58:25.726Z,11.00
2023-02-23T08:00:54.877Z,10.99
2023-02-23T08:03:53.641Z,11.00
2023-02-23T08:06:21.304Z,11.00
2023-02-23T08:08:49.368Z,11.02
2023-02-23T08:11:16.672Z,11.04
2023-02-23T08:13:44.316Z,11.05
2023-02-23T08:16:12.623Z,11.06
2023-02-23T08:18:39.776Z,11.07
2023-02-23T08:21:07.811Z,11.09
2023-02-23T08:23:35.204Z,11.11
2023-02-23T08:26:03.180Z,11.10
2023-02-23T08:28:31.439Z,11.10
2023-02-23T08:30:59.584Z,11.12
2023-02-23T08:33:26.929Z,11.07
2023-02-23T08:35:54.046Z,11.08
2023-02-23T08:38:21.301Z,11.13
2023-02-23T08:40:48.498Z,11.14
2023-02-23T08:43:17.609Z,11.09
2023-02-23T08:45:44.716Z,11.08
2023-02-23T08:48:11.891Z,11.06
2023-02-23T08:50:39.304Z,11.06
2023-02-23T08:53:07.610Z,11.17
2023-02-23T08:55:35.795Z,11.12
2023-02-23T08:58:03.194Z,11.14
2023-02-23T09:00:31.563Z,11.08
2023-02-23T09:02:58.831Z,11.12
2023-02-23T09:05:26.097Z,11.14
2023-02-23T09:07:53.365Z,11.12
2023-02-23T09:10:25.000Z,11.13
2023-02-23T09:12:52.184Z,11.16
2023-02-23T09:15:19.896Z,11.20
2023-02-23T09:17:48.070Z,11.25
2023-02-23T09:20:16.852Z,11.25
2023-02-23T09:22:50.159Z,11.26
2023-02-23T09:25:22.894Z,11.29
2023-02-23T09:27:57.105Z,11.34
2023-02-23T09:30:24.269Z,11.36
2023-02-23T09:32:52.626Z,11.39
2023-02-23T09:35:22.465Z,11.44
2023-02-23T09:37:53.106Z,11.47
2023-02-23T09:40:30.902Z,11.49
2023-02-23T09:43:35.715Z,11.51
2023-02-23T09:46:19.215Z,11.54
2023-02-23T09:48:46.438Z,11.55
2023-02-23T09:51:19.359Z,11.58
2023-02-23T09:53:54.872Z,11.60
2023-02-23T09:56:37.320Z,11.63
2023-02-23T09:59:17.436Z,11.68
2023-02-23T10:01:48.129Z,11.71
2023-02-23T10:04:31.212Z,11.80
2023-02-23T10:07:21.161Z,11.81
2023-02-23T10:10:23.725Z,11.80
2023-02-23T10:13:02.905Z,11.83
2023-02-23T10:16:04.388Z,11.84
2023-02-23T10:19:28.102Z,11.90
2023-02-23T10:22:05.032Z,11.97
2023-02-23T10:24:46.377Z,12.04
2023-02-23T10:27:30.826Z,12.06
2023-02-23T10:30:00.777Z,12.06
2023-02-23T10:32:49.522Z,12.14
2023-02-23T10:35:21.441Z,12.15
2023-02-23T10:37:50.988Z,12.19
2023-02-23T10:40:28.805Z,12.24
2023-02-23T10:42:58.301Z,12.33
2023-02-23T10:45:29.018Z,12.36
2023-02-23T10:48:06.086Z,12.34
2023-02-23T10:50:37.005Z,12.36
2023-02-23T10:53:26.823Z,12.41
2023-02-23T10:56:18.520Z,12.46
2023-02-23T10:58:52.942Z,12.54
2023-02-23T11:02:00.558Z,12.58
2023-02-23T11:04:32.226Z,12.66
2023-02-23T11:07:22.700Z,12.78
2023-02-23T11:09:51.682Z,12.83
2023-02-23T11:12:24.303Z,12.92
2023-02-23T11:14:55.120Z,12.99
2023-02-23T11:17:37.803Z,13.08
2023-02-23T11:20:30.981Z,13.13
2023-02-23T11:23:03.657Z,13.18
2023-02-23T11:25:38.743Z,13.24
2023-02-23T11:28:05.938Z,13.28
2023-02-23T11:30:38.326Z,13.35
2023-02-23T11:33:10.748Z,13.44
2023-02-23T11:35:39.094Z,13.50
2023-02-23T11:38:29.219Z,13.56
2023-02-23T11:41:23.962Z,13.61
2023-02-23T11:43:58.610Z,13.62
2023-02-23T11:46:28.793Z,13.72
2023-02-23T11:49:36.110Z,13.84
2023-02-23T11:52:03.559Z,13.89
2023-02-23T11:54:34.530Z,14.01
2023-02-23T11:57:06.330Z,14.02
2023-02-23T11:59:40.681Z,14.09
2023-02-23T12:02:19.300Z,14.17
2023-02-23T12:04:47.960Z,14.27
2023-02-23T12:07:44.087Z,14.33
2023-02-23T12:10:22.985Z,14.43
2023-02-23T12:13:00.907Z,14.48
2023-02-23T12:16:01.665Z,14.56
2023-02-23T12:18:50.081Z,14.65
2023-02-23T12:21:34.091Z,14.75
2023-02-23T12:24:19.859Z,14.85
2023-02-23T12:27:06.402Z,14.92
2023-02-23T12:29:58.962Z,14.98
2023-02-23T12:32:45.833Z,15.04
2023-02-23T12:35:33.914Z,15.07
2023-02-23T12:38:10.540Z,15.14
2023-02-23T12:40:42.216Z,15.16
2023-02-23T12:43:21.906Z,15.20
2023-02-23T12:46:08.583Z,15.27
2023-02-23T12:49:19.704Z,15.35
2023-02-23T12:52:08.674Z,15.40
2023-02-23T12:54:37.098Z,15.34
2023-02-23T12:57:23.915Z,15.42
2023-02-23T13:00:51.358Z,15.51
2023-02-23T13:03:56.324Z,15.58
2023-02-23T13:06:44.704Z,15.63
2023-02-23T13:09:46.958Z,15.68
2023-02-23T13:12:26.824Z,15.74
2023-02-23T13:15:27.123Z,15.68
2023-02-23T13:18:13.829Z,15.75
2023-02-23T13:21:20.278Z,15.77
2023-02-23T13:24:02.228Z,15.78
2023-02-23T13:26:44.553Z,15.81
2023-02-23T13:29:34.692Z,15.76
2023-02-23T13:32:05.249Z,15.81
2023-02-23T13:34:49.985Z,15.79
2023-02-23T13:37:22.339Z,15.72
2023-02-23T13:40:09.638Z,15.74
2023-02-23T13:43:30.190Z,15.78
2023-02-23T13:46:37.423Z,15.80
2023-02-23T13:49:47.254Z,15.81
2023-02-23T13:52:40.084Z,15.83
2023-02-23T13:55:25.961Z,15.93
2023-02-23T13:58:07.496Z,15.91
2023-02-23T14:00:34.991Z,15.99
2023-02-23T14:03:08.797Z,16.04
2023-02-23T14:05:44.667Z,16.06
2023-02-23T14:08:37.474Z,16.13
2023-02-23T14:11:06.784Z,16.19
2023-02-23T14:13:41.353Z,16.30
2023-02-23T14:16:20.605Z,16.36
2023-02-23T14:19:03.921Z,16.33
2023-02-23T14:21:44.579Z,16.19
2023-02-23T14:24:36.971Z,16.19
2023-02-23T14:27:41.461Z,16.25
2023-02-23T14:30:12.098Z,16.25
2023-02-23T14:32:41.425Z,16.28
2023-02-23T14:35:33.189Z,16.29
2023-02-23T14:38:24.954Z,16.29
2023-02-23T14:40:54.507Z,16.26
2023-02-23T14:43:42.994Z,16.29
2023-02-23T14:46:28.473Z,16.28
2023-02-23T14:49:10.590Z,16.30
2023-02-23T14:51:48.677Z,16.27
2023-02-23T14:54:28.930Z,16.22
2023-02-23T14:56:58.429Z,16.19
2023-02-23T14:59:39.583Z,16.18
2023-02-23T15:02:24.387Z,16.19
2023-02-23T15:04:53.932Z,16.13
2023-02-23T15:07:41.092Z,16.10
2023-02-23T15:10:21.167Z,16.08
2023-02-23T15:12:49.024Z,16.02
2023-02-23T15:15:24.544Z,16.00
2023-02-23T15:17:59.879Z,15.96
2023-02-23T15:23:04.293Z,15.96
2023-02-23T15:25:40.582Z,15.95
2023-02-23T15:28:29.680Z,15.91
2023-02-23T15:31:02.266Z,15.85
2023-02-23T15:33:30.504Z,15.83
2023-02-23T15:36:07.147Z,15.81
2023-02-23T15:38:46.785Z,15.76
2023-02-23T15:41:36.206Z,15.73
2023-02-23T15:44:15.112Z,15.68
2023-02-23T15:46:45.490Z,15.65
2023-02-23T15:49:19.552Z,15.60
2023-02-23T15:51:57.240Z,15.57
2023-02-23T15:54:34.581Z,15.55
2023-02-23T15:57:19.693Z,15.52
2023-02-23T15:59:50.324Z,15.46
2023-02-23T16:02:20.696Z,15.41
2023-02-23T16:04:54.005Z,15.39
2023-02-23T16:07:25.129Z,15.36
2023-02-23T16:09:53.530Z,15.33
2023-02-23T16:12:25.492Z,15.31
2023-02-23T16:14:58.002Z,15.27
2023-02-23T16:17:44.749Z,15.25
2023-02-23T16:20:26.815Z,15.19
2023-02-23T16:22:55.034Z,15.16
2023-02-23T16:25:26.869Z,15.10
2023-02-23T16:28:09.585Z,15.07
2023-02-23T16:30:51.754Z,15.05
2023-02-23T16:33:43.886Z,15.01
2023-02-23T16:36:14.242Z,14.95
2023-02-23T16:39:01.558Z,14.95
2023-02-23T16:41:34.743Z,14.94
2023-02-23T16:44:06.374Z,14.90
2023-02-23T16:47:09.266Z,14.86
2023-02-23T16:49:36.370Z,14.84
2023-02-23T16:52:15.765Z,14.82
2023-02-23T16:54:42.924Z,14.80
2023-02-23T16:57:22.516Z,14.76
2023-02-23T16:59:51.855Z,14.72
2023-02-23T17:02:22.807Z,14.71
2023-02-23T17:04:51.863Z,14.68
2023-02-23T17:07:22.968Z,14.64
2023-02-23T17:09:51.048Z,14.64
2023-02-23T17:12:21.827Z,14.62
2023-02-23T17:14:49.812Z,14.62
2023-02-23T17:17:19.244Z,14.59
2023-02-23T17:19:46.775Z,14.56
2023-02-23T17:22:14.560Z,14.54
2023-02-23T17:24:42.721Z,14.52
2023-02-23T17:27:10.445Z,14.51
2023-02-23T17:29:37.476Z,14.49
2023-02-23T17:32:04.999Z,14.47
2023-02-23T17:34:32.216Z,14.45
2023-02-23T17:36:59.214Z,14.43
2023-02-23T17:39:28.172Z,14.42
2023-02-23T17:41:55.917Z,14.42
2023-02-23T17:44:23.134Z,14.40
2023-02-23T17:46:50.117Z,14.41
2023-02-23T17:49:17.082Z,14.41
2023-02-23T17:51:44.176Z,14.40
2023-02-23T17:54:11.279Z,14.36
2023-02-23T17:56:38.680Z,14.36
2023-02-23T17:59:05.684Z,14.33
2023-02-23T18:01:32.980Z,14.33
2023-02-23T18:04:00.805Z,14.31
2023-02-23T18:06:28.513Z,14.31
2023-02-23T18:08:55.788Z,14.30
2023-02-23T18:11:23.477Z,14.30
2023-02-23T18:13:51.553Z,14.29
2023-02-23T18:16:19.551Z,14.26
2023-02-23T18:18:48.400Z,14.24
2023-02-23T18:21:20.360Z,14.21
2023-02-23T18:23:48.860Z,14.21
2023-02-23T18:26:20.505Z,14.20
2023-02-23T18:28:48.055Z,14.19
2023-02-23T18:31:19.570Z,14.18
2023-02-23T18:33:49.943Z,14.17
2023-02-23T18:36:28.006Z,14.16
2023-02-23T18:38:57.775Z,14.16
2023-02-23T18:41:30.834Z,14.15
2023-02-23T18:44:03.013Z,14.12
2023-02-23T18:46:31.317Z,14.11
2023-02-23T18:48:59.189Z,14.12
2023-02-23T18:51:27.002Z,14.11
2023-02-23T18:53:55.288Z,14.09
2023-02-23T18:56:28.144Z,14.09
2023-02-23T18:58:59.811Z,14.07
2023-02-23T19:01:31.253Z,14.05
2023-02-23T19:04:01.685Z,14.05
2023-02-23T19:06:31.495Z,14.02
2023-02-23T19:09:03.177Z,14.02
2023-02-23T19:11:34.211Z,14.01
2023-02-23T19:14:40.856Z,13.99
2023-02-23T19:17:09.780Z,13.98
2023-02-23T19:19:38.119Z,13.97
2023-02-23T19:22:05.304Z,13.96
2023-02-23T19:24:32.550Z,13.94
2023-02-23T19:27:00.306Z,13.94
2023-02-23T19:29:27.675Z,13.92
2023-02-23T19:31:55.039Z,13.91
2023-02-23T19:34:22.882Z,13.87
2023-02-23T19:36:50.256Z,13.85
2023-02-23T19:39:18.807Z,13.80
2023-02-23T19:41:47.200Z,13.78
2023-02-23T19:44:14.250Z,13.77
2023-02-23T19:46:42.957Z,13.77
2023-02-23T19:49:10.328Z,13.76
2023-02-23T19:51:37.650Z,13.78
2023-02-23T19:54:06.327Z,13.73
2023-02-23T19:56:34.103Z,13.71
2023-02-23T19:59:02.480Z,13.71
2023-02-23T20:01:30.025Z,13.70
2023-02-23T20:04:04.438Z,13.69
2023-02-23T20:06:39.199Z,13.70
2023-02-23T20:09:07.433Z,13.69
2023-02-23T20:11:34.645Z,13.69
2023-02-23T20:14:03.643Z,13.68
2023-02-23T20:16:31.251Z,13.67
2023-02-23T20:18:58.737Z,13.66
2023-02-23T20:21:28.640Z,13.65
2023-02-23T20:23:56.641Z,13.61
2023-02-23T20:26:30.489Z,13.56
2023-02-23T20:28:58.647Z,13.54
2023-02-23T20:31:29.882Z,13.50
2023-02-23T20:34:00.825Z,13.46
2023-02-23T20:36:27.982Z,13.42
2023-02-23T20:38:56.514Z,13.40
2023-02-23T20:41:25.513Z,13.30
2023-02-23T20:43:52.910Z,13.25
2023-02-23T20:46:20.749Z,13.22
2023-02-23T20:48:49.200Z,13.25
2023-02-23T20:51:19.181Z,13.22
2023-02-23T20:53:48.739Z,13.17
2023-02-23T20:56:19.272Z,13.13
2023-02-23T20:58:47.214Z,13.10
2023-02-23T21:01:19.353Z,13.12
2023-02-23T21:03:46.984Z,13.12
2023-02-23T21:06:16.041Z,13.10
2023-02-23T21:08:46.289Z,13.07
2023-02-23T21:11:13.644Z,13.03
2023-02-23T21:13:40.813Z,12.96
2023-02-23T21:16:08.318Z,12.98
2023-02-23T21:18:35.449Z,12.96
2023-02-23T21:21:09.713Z,12.96
2023-02-23T21:23:38.811Z,12.90
2023-02-23T21:26:13.092Z,12.89
2023-02-23T21:28:45.472Z,12.86
2023-02-23T21:31:14.285Z,12.82
2023-02-23T21:33:43.642Z,12.77
2023-02-23T21:36:12.683Z,12.77
2023-02-23T21:38:42.219Z,12.74
2023-02-23T21:41:15.222Z,12.70
2023-02-23T21:43:43.862Z,12.67
2023-02-23T21:46:16.579Z,12.62
2023-02-23T21:48:44.667Z,12.56
2023-02-23T21:51:14.680Z,12.51
2023-02-23T21:53:43.945Z,12.46
2023-02-23T21:56:15.523Z,12.40
2023-02-23T21:58:53.110Z,12.37
2023-02-23T22:01:24.886Z,12.31
2023-02-23T22:03:54.862Z,12.24
2023-02-23T22:06:29.193Z,12.16
2023-02-23T22:08:57.794Z,12.14
2023-02-23T22:11:27.962Z,12.14
2023-02-23T22:14:01.731Z,12.12
2023-02-23T22:16:35.779Z,12.10
2023-02-23T22:19:04.582Z,12.03
2023-02-23T22:21:38.771Z,12.01
2023-02-23T22:24:08.032Z,12.00
2023-02-23T22:26:39.030Z,12.01
2023-02-23T22:29:07.586Z,12.00
2023-02-23T22:31:39.026Z,12.00
2023-02-23T22:34:07.301Z,12.00
2023-02-23T22:36:34.998Z,11.98
2023-02-23T22:39:05.725Z,11.98
2023-02-23T22:41:33.072Z,11.97
2023-02-23T22:44:00.155Z,11.94
2023-02-23T22:46:27.329Z,11.91
2023-02-23T22:48:54.394Z,11.91
2023-02-23T22:51:22.108Z,11.88
2023-02-23T22:53:49.653Z,11.86
2023-02-23T22:56:16.683Z,11.85
2023-02-23T22:58:43.956Z,11.83
2023-02-23T23:01:12.343Z,11.81
2023-02-23T23:03:48.011Z,11.78
2023-02-23T23:06:22.958Z,11.74
2023-02-23T23:08:53.761Z,11.68
2023-02-23T23:11:26.861Z,11.64
2023-02-23T23:14:02.140Z,11.62
2023-02-23T23:16:33.543Z,11.55
2023-02-23T23:19:13.026Z,11.52
2023-02-23T23:21:42.410Z,11.48
2023-02-23T23:24:15.681Z,11.43
2023-02-23T23:26:44.383Z,11.40
2023-02-23T23:29:14.645Z,11.40
2023-02-23T23:31:45.793Z,11.39
2023-02-23T23:34:14.385Z,11.38
2023-02-23T23:36:53.355Z,11.35
2023-02-23T23:39:26.130Z,11.32
2023-02-23T23:41:54.401Z,11.30
2023-02-23T23:44:24.308Z,11.29
2023-02-23T23:46:51.554Z,11.27
2023-02-23T23:49:25.609Z,11.26
2023-02-23T23:51:56.373Z,11.21
2023-02-23T23:54:31.020Z,11.20
2023-02-23T23:57:05.898Z,11.14
2023-02-23T23:59:34.835Z,11.09
